METAR France - 12 Dec 2017 - 2348 UTC - RocketRoute WX - rrwx.com
LFLB 122330Z AUTO 00000KT 8000 BKN006 BKN020 01/00 Q1021 LFBZ 122330Z AUTO 19003KT 160V230 9999 BKN050 OVC078 07/04 Q1022 LFLC 122330Z AUTO 16009KT 9999 FEW056 SCT068 01/M02 Q1019 NOSIG LFSB 122330Z AUTO VRB03KT CAVOK M02/M03 Q1019 TEMPO 4000 BR LFBL 122330Z AUTO 16007KT 9999 OVC005 02/02 Q1019 LFBI 122330Z AUTO 18009KT CAVOK 04/03 Q1017 LFBO 122330Z AUTO 18004KT CAVOK 00/M01 Q1022 LFRB 122330Z AUTO 22020KT 9000 OVC004 10/10 Q1009 TEMPO 24015G25KT 3000 -RA LFLY 122330Z AUTO VRB01KT CAVOK M01/M02 Q1021 TEMPO 0800 FZFG VV/// LFRK 122330Z AUTO 19012KT 9999 FEW046 OVC100 06/03 Q1011 LFMN 122330Z 24005KT 210V270 CAVOK 07/03 Q1014 NOSIG LFST 122330Z AUTO 19006KT 160V220 9999 FEW060 SCT074 01/M01 Q1018 NOSIG LFTW 122330Z AUTO 30006KT CAVOK 01/M01 Q1020 LFRH 122330Z AUTO 22015KT 9999 OVC007 10/09 Q1011 TEMPO 22020G32KT BECMG 4000 RA LFPB 122330Z AUTO 20010KT CAVOK 05/02 Q1015 NOSIG LFQQ 122330Z AUTO 17011KT CAVOK 02/01 Q1012 BECMG BKN012 LFAT 122330Z AUTO 16007KT CAVOK 04/02 Q1010 LFMT 122330Z AUTO 32006KT CAVOK 04/M01 Q1021 NOSIG LFBD 122330Z AUTO 19005KT 9999 FEW041 BKN056 05/04 Q1020 LFRS 122330Z AUTO 18006KT 9999 SCT032 BKN045 BKN060 06/05 Q1015 BECMG BKN010 OVC030 LFKJ 122330Z AUTO 07003KT 9999 FEW029 SCT040 BKN050 09/08 Q1018 NOSIG LFPG 122330Z 20010KT CAVOK 03/02 Q1014 LFPO 122330Z 20007KT 9999 FEW010 BKN130 03/01 Q1015 LFRD 122330Z AUTO 18012KT CAVOK 07/05 Q1010 TEMPO 3000 RA BKN005 BECMG 19015G25KT LFKB 122330Z AUTO 25007KT 220V290 CAVOK 11/05 Q1016 NOSIG LFML 122330Z AUTO 30010KT CAVOK 05/M01 Q1019 NOSIG LFMP 122330Z AUTO 26005KT 230V300 CAVOK 03/M01 Q1022 LFLL 122330Z 14005KT 5000 BR NSC M00/M02 Q1020 NOSIG LFRN 122330Z AUTO 18012KT CAVOK 07/05 Q1012 BECMG RA BKN010 LFOB 122330Z AUTO 19008KT CAVOK 04/02 Q1013 BECMG BKN012 LFPN 122330Z AUTO 20011KT 9999 SCT008 OVC120 03/02 Q1014 LFOT 122330Z AUTO 18007KT CAVOK 03/02 Q1016 TEMPO BKN008

RocketRoute WX - rrwx.com weather for pilots